Time;durP1;ratioP1;P1;durP2;ratioP2;P2;SDS_P1;SDS_P2;PMS_P1;PMS_P2;Temp;Humidity;BMP_temperature;BMP_pressure;BME280_temperature;BME280_humidity;BME280_pressure;Samples;Min_cycle;Max_cycle;Signal;HPM_P1;HPM_P2
2022/04/24 00:08:47;;;;;;;6.20;3.28;;;12.60;94.80;;;;;;5310052;23;19946;-69
2022/04/24 00:11:13;;;;;;;5.70;3.42;;;12.70;94.80;;;;;;4914593;29;20060;-69
2022/04/24 00:13:41;;;;;;;3.70;3.35;;;12.70;94.70;;;;;;4917647;29;20040;-70
2022/04/24 00:16:08;;;;;;;5.40;3.42;;;12.70;94.60;;;;;;4900556;29;20497;-71
2022/04/24 00:18:34;;;;;;;5.45;3.25;;;12.60;94.70;;;;;;4891681;29;20039;-71
2022/04/24 00:21:01;;;;;;;3.72;3.10;;;12.60;94.80;;;;;;4881166;29;20039;-71
2022/04/24 00:23:27;;;;;;;3.60;3.17;;;12.60;94.80;;;;;;4911684;29;20032;-68
2022/04/24 00:25:53;;;;;;;3.42;2.80;;;12.60;94.80;;;;;;4906222;29;20032;-72
2022/04/24 00:28:18;;;;;;;5.03;3.33;;;12.50;94.80;;;;;;4916794;29;20028;-71
2022/04/24 00:30:44;;;;;;;6.00;4.90;;;12.50;94.80;;;;;;4916489;29;20138;-71
2022/04/24 00:33:10;;;;;;;6.35;3.75;;;12.40;94.90;;;;;;4915022;29;20510;-70
2022/04/24 00:35:35;;;;;;;4.50;3.65;;;12.40;94.90;;;;;;4899449;29;20358;-70
2022/04/24 00:38:01;;;;;;;3.65;3.30;;;12.40;95.00;;;;;;4913073;29;20119;-71
2022/04/24 00:40:27;;;;;;;4.72;3.95;;;12.30;95.20;;;;;;4916037;29;20295;-70
2022/04/24 00:42:53;;;;;;;6.60;3.67;;;12.20;95.10;;;;;;4915553;29;20047;-71
2022/04/24 00:45:18;;;;;;;5.57;3.58;;;12.30;95.10;;;;;;4911997;29;20036;-70
2022/04/24 00:47:44;;;;;;;7.60;3.85;;;12.20;95.20;;;;;;4912163;29;20038;-70
2022/04/24 00:50:10;;;;;;;5.10;3.65;;;12.20;95.10;;;;;;4894584;29;20032;-70
2022/04/24 00:52:37;;;;;;;3.50;3.15;;;12.30;95.00;;;;;;4895185;29;20463;-69
2022/04/24 00:55:03;;;;;;;5.70;3.25;;;12.20;95.10;;;;;;4911469;29;20051;-70
2022/04/24 00:57:29;;;;;;;4.20;3.80;;;12.10;95.20;;;;;;4912298;29;20032;-70
2022/04/24 00:59:55;;;;;;;8.35;3.78;;;12.20;95.20;;;;;;4911583;29;20036;-69
2022/04/24 01:02:21;;;;;;;4.75;3.28;;;12.20;95.20;;;;;;4912777;29;20115;-69
2022/04/24 01:04:47;;;;;;;3.85;3.30;;;12.20;95.10;;;;;;4907117;29;20045;-70
2022/04/24 01:07:13;;;;;;;4.20;3.75;;;12.20;95.10;;;;;;4912184;29;20519;-69
2022/04/24 01:09:39;;;;;;;10.68;4.40;;;12.10;95.20;;;;;;4894882;29;20146;-70
2022/04/24 01:12:06;;;;;;;4.30;3.90;;;12.10;95.20;;;;;;4910697;29;20477;-70
2022/04/24 01:14:33;;;;;;;6.80;3.53;;;12.20;95.10;;;;;;4911867;29;20032;-70
2022/04/24 01:17:00;;;;;;;4.63;3.83;;;12.10;95.20;;;;;;4893664;29;20454;-69
2022/04/24 01:19:26;;;;;;;8.20;3.42;;;12.10;95.20;;;;;;4910907;29;20404;-68
2022/04/24 01:21:52;;;;;;;6.55;3.67;;;12.10;95.10;;;;;;4878559;29;20041;-69
2022/04/24 01:24:20;;;;;;;4.10;3.70;;;12.10;95.10;;;;;;4898782;29;20123;-71
2022/04/24 01:26:46;;;;;;;4.85;3.78;;;12.10;95.00;;;;;;4899804;29;20072;-70
2022/04/24 01:29:12;;;;;;;5.47;3.00;;;12.20;95.00;;;;;;4898339;29;20402;-71
2022/04/24 01:31:38;;;;;;;5.60;4.00;;;12.10;94.90;;;;;;4902448;29;20024;-69
2022/04/24 01:34:04;;;;;;;4.72;4.18;;;12.10;95.00;;;;;;4914282;29;20489;-70
2022/04/24 01:36:30;;;;;;;5.97;4.03;;;12.10;95.00;;;;;;4916134;29;20029;-70
2022/04/24 01:38:56;;;;;;;5.60;3.88;;;12.10;95.10;;;;;;4899213;29;20083;-71
2022/04/24 01:41:21;;;;;;;4.50;3.83;;;12.10;95.00;;;;;;4899429;29;20059;-70
2022/04/24 01:43:48;;;;;;;6.10;3.50;;;12.00;95.10;;;;;;4916984;29;20046;-70
2022/04/24 01:46:14;;;;;;;3.60;3.30;;;12.00;95.00;;;;;;4916180;29;20284;-70
2022/04/24 01:48:40;;;;;;;5.57;3.70;;;12.00;95.10;;;;;;4916759;29;20060;-71
2022/04/24 01:51:07;;;;;;;4.93;4.28;;;12.00;95.10;;;;;;4915861;29;20072;-70
2022/04/24 01:53:34;;;;;;;7.70;4.00;;;12.00;95.10;;;;;;4916657;29;20032;-70
2022/04/24 01:56:02;;;;;;;4.78;3.55;;;12.00;95.20;;;;;;4916249;29;20034;-72
2022/04/24 01:58:27;;;;;;;4.40;3.90;;;11.90;95.60;;;;;;4916622;29;20052;-70
2022/04/24 02:00:54;;;;;;;5.93;3.72;;;12.00;95.30;;;;;;4899244;29;20067;-70
2022/04/24 02:03:21;;;;;;;6.85;3.35;;;11.90;95.30;;;;;;4915996;29;20040;-70
2022/04/24 02:05:47;;;;;;;4.93;4.15;;;11.70;95.50;;;;;;4899211;29;20047;-70
2022/04/24 02:08:13;;;;;;;7.72;4.50;;;11.90;95.40;;;;;;4915762;29;20028;-70
2022/04/24 02:10:39;;;;;;;6.72;3.88;;;11.90;95.30;;;;;;4914662;29;20068;-70
2022/04/24 02:13:05;;;;;;;6.38;4.38;;;11.80;95.30;;;;;;4898561;29;20032;-70
2022/04/24 02:15:30;;;;;;;4.72;3.88;;;11.70;95.50;;;;;;4899209;29;20047;-70
2022/04/24 02:17:56;;;;;;;6.22;4.00;;;11.70;95.60;;;;;;4915518;29;20449;-68
2022/04/24 02:20:23;;;;;;;4.40;3.85;;;11.80;95.30;;;;;;4899068;29;20032;-71
2022/04/24 02:22:49;;;;;;;7.00;3.92;;;11.80;95.40;;;;;;4899062;29;20032;-70
2022/04/24 02:25:15;;;;;;;5.35;4.55;;;11.80;95.40;;;;;;4915235;29;20028;-70
2022/04/24 02:27:41;;;;;;;4.55;4.00;;;11.80;95.30;;;;;;4914627;29;20036;-70
2022/04/24 02:30:08;;;;;;;4.68;4.07;;;11.80;95.40;;;;;;4915146;29;20524;-70
2022/04/24 02:32:33;;;;;;;4.55;3.72;;;11.80;95.30;;;;;;4916022;29;20489;-70
2022/04/24 02:34:59;;;;;;;4.85;4.10;;;11.80;95.30;;;;;;4914915;29;20033;-70
2022/04/24 02:37:26;;;;;;;4.85;4.05;;;11.80;95.30;;;;;;4898523;29;20455;-71
2022/04/24 02:39:52;;;;;;;4.20;3.70;;;11.80;95.30;;;;;;4898379;29;20444;-70
2022/04/24 02:42:17;;;;;;;4.57;4.10;;;11.70;95.40;;;;;;4914951;29;20272;-70
2022/04/24 02:44:43;;;;;;;4.35;3.95;;;11.70;95.30;;;;;;4915483;29;20028;-70
2022/04/24 02:47:09;;;;;;;4.28;3.70;;;11.70;95.30;;;;;;4914741;29;20527;-70
2022/04/24 02:49:34;;;;;;;6.18;5.13;;;11.60;95.50;;;;;;4898448;29;20032;-70
2022/04/24 02:52:00;;;;;;;6.60;4.15;;;11.60;95.40;;;;;;4897904;29;20036;-70
2022/04/24 02:54:26;;;;;;;5.18;4.40;;;11.70;95.50;;;;;;4898189;29;20118;-70
2022/04/24 02:56:51;;;;;;;5.82;4.60;;;11.70;95.40;;;;;;4915195;29;20339;-70
2022/04/24 02:59:17;;;;;;;19.80;4.50;;;11.70;95.40;;;;;;4897565;29;20028;-70
2022/04/24 03:01:44;;;;;;;5.30;4.30;;;11.70;95.50;;;;;;4915269;29;20046;-70
2022/04/24 03:04:10;;;;;;;5.63;4.32;;;11.60;95.50;;;;;;4897492;29;20391;-71
2022/04/24 03:06:36;;;;;;;5.30;3.38;;;11.60;95.50;;;;;;4914929;29;20095;-70
2022/04/24 03:09:01;;;;;;;4.13;3.72;;;11.60;95.50;;;;;;4914604;29;20094;-70
2022/04/24 03:11:27;;;;;;;6.50;4.97;;;11.70;95.40;;;;;;4914947;29;20135;-70
2022/04/24 03:13:52;;;;;;;4.55;4.05;;;11.70;95.50;;;;;;4898067;29;20032;-70
2022/04/24 03:16:18;;;;;;;4.50;4.07;;;11.70;95.40;;;;;;4913038;29;20051;-70
2022/04/24 03:18:43;;;;;;;4.57;4.03;;;11.70;95.40;;;;;;4913857;29;20032;-70
2022/04/24 03:21:10;;;;;;;5.13;4.18;;;11.60;95.60;;;;;;4914109;29;20028;-70
2022/04/24 03:23:35;;;;;;;4.90;4.28;;;11.60;95.60;;;;;;4915021;29;20490;-71
2022/04/24 03:26:01;;;;;;;6.30;4.40;;;11.60;95.60;;;;;;4914882;29;20075;-70
2022/04/24 03:28:26;;;;;;;7.75;4.40;;;11.60;95.60;;;;;;4897965;29;20083;-71
2022/04/24 03:30:52;;;;;;;4.72;4.07;;;11.70;95.60;;;;;;4914858;29;20165;-70
2022/04/24 03:33:18;;;;;;;8.23;4.20;;;11.60;95.70;;;;;;4897185;29;20035;-70
2022/04/24 03:35:43;;;;;;;4.70;4.30;;;11.60;95.70;;;;;;4913016;29;20025;-70
2022/04/24 03:38:09;;;;;;;4.85;4.32;;;11.50;95.90;;;;;;4913977;29;20432;-69
2022/04/24 03:40:34;;;;;;;4.50;4.10;;;11.50;95.80;;;;;;4914680;29;20119;-70
2022/04/24 03:43:01;;;;;;;6.07;4.10;;;11.50;95.90;;;;;;4914367;29;20043;-70
2022/04/24 03:45:26;;;;;;;5.63;4.20;;;11.50;95.80;;;;;;4914769;29;20036;-69
2022/04/24 03:47:52;;;;;;;4.75;4.10;;;11.60;95.60;;;;;;4897763;29;20034;-70
2022/04/24 03:50:21;;;;;;;5.93;4.40;;;11.60;95.70;;;;;;4897076;29;20031;-70
2022/04/24 03:52:47;;;;;;;5.28;4.65;;;11.60;95.70;;;;;;4914713;29;20061;-70
2022/04/24 03:55:12;;;;;;;5.43;4.45;;;11.60;95.60;;;;;;4913939;29;20028;-71
2022/04/24 03:57:38;;;;;;;4.68;4.18;;;11.70;95.80;;;;;;4897177;29;20144;-70
2022/04/24 04:00:05;;;;;;;8.40;4.68;;;11.60;95.70;;;;;;4897036;29;20498;-70
2022/04/24 04:02:31;;;;;;;5.70;4.50;;;11.50;95.70;;;;;;4897944;29;20132;-70
2022/04/24 04:04:57;;;;;;;4.65;4.25;;;11.50;95.90;;;;;;4897384;29;20473;-70
2022/04/24 04:07:23;;;;;;;6.72;4.53;;;11.60;96.00;;;;;;4896736;29;20189;-69
2022/04/24 04:09:49;;;;;;;5.50;4.80;;;11.50;95.80;;;;;;4897058;29;20056;-70
2022/04/24 04:12:14;;;;;;;5.90;4.28;;;11.60;95.90;;;;;;4912504;29;20043;-69
2022/04/24 04:14:40;;;;;;;5.28;4.78;;;11.60;95.80;;;;;;4897250;29;20076;-70
2022/04/24 04:17:06;;;;;;;5.63;5.00;;;11.50;95.80;;;;;;4913831;29;20418;-68
2022/04/24 04:19:32;;;;;;;7.50;5.13;;;11.50;96.00;;;;;;4914341;29;20029;-70
2022/04/24 04:21:58;;;;;;;5.03;4.53;;;11.50;96.00;;;;;;4914499;29;20060;-70
2022/04/24 04:24:23;;;;;;;6.50;4.53;;;11.50;95.90;;;;;;4896725;29;20036;-70
2022/04/24 04:26:49;;;;;;;6.72;5.00;;;11.50;95.90;;;;;;4914333;29;20040;-70
2022/04/24 04:29:15;;;;;;;7.38;5.00;;;11.50;96.00;;;;;;4913662;29;20030;-70
2022/04/24 04:31:40;;;;;;;7.47;5.20;;;11.50;96.10;;;;;;4914087;29;20036;-70
2022/04/24 04:34:06;;;;;;;7.63;4.80;;;11.40;96.00;;;;;;4896674;29;20179;-69
2022/04/24 04:36:31;;;;;;;5.28;4.78;;;11.50;96.10;;;;;;4914313;29;20335;-70
2022/04/24 04:38:57;;;;;;;5.32;4.53;;;11.50;96.20;;;;;;4913966;29;20031;-70
2022/04/24 04:41:23;;;;;;;5.72;4.75;;;11.50;96.30;;;;;;4896512;29;20374;-70
2022/04/24 04:43:48;;;;;;;5.93;5.00;;;11.50;96.10;;;;;;4897179;29;20505;-70
2022/04/24 04:46:14;;;;;;;6.38;4.68;;;11.50;96.30;;;;;;4914008;29;20116;-69
2022/04/24 04:48:40;;;;;;;5.88;5.30;;;11.50;96.20;;;;;;4900611;29;20073;-70
2022/04/24 04:51:05;;;;;;;6.90;4.88;;;11.40;96.40;;;;;;4917125;29;20024;-67
2022/04/24 04:53:31;;;;;;;5.28;4.68;;;11.50;96.30;;;;;;4917672;29;20039;-71
2022/04/24 04:55:57;;;;;;;6.55;4.65;;;11.50;96.40;;;;;;4900475;29;20111;-71
2022/04/24 04:58:23;;;;;;;8.27;5.68;;;11.50;96.40;;;;;;4917051;29;20032;-70
2022/04/24 05:00:48;;;;;;;6.35;4.43;;;11.60;96.30;;;;;;4913383;29;20035;-71
2022/04/24 05:03:14;;;;;;;5.13;4.50;;;11.70;96.30;;;;;;4916652;29;20497;-70
2022/04/24 05:05:39;;;;;;;5.25;4.75;;;11.80;96.20;;;;;;4930757;29;20040;-69
2022/04/24 05:08:06;;;;;;;7.53;5.15;;;11.70;96.30;;;;;;4915561;29;20028;-70
2022/04/24 05:10:31;;;;;;;6.15;4.25;;;11.90;96.10;;;;;;4915997;29;20055;-70
2022/04/24 05:12:57;;;;;;;5.25;4.45;;;11.80;96.20;;;;;;4901079;29;20028;-72
2022/04/24 05:15:23;;;;;;;6.10;5.43;;;11.80;96.20;;;;;;4891643;29;20037;-72
2022/04/24 05:17:48;;;;;;;7.63;4.93;;;11.90;96.20;;;;;;4906239;29;20319;-70
2022/04/24 05:20:14;;;;;;;6.43;5.43;;;11.90;96.60;;;;;;4916638;29;20034;-70
2022/04/24 05:22:41;;;;;;;7.50;5.55;;;11.90;97.70;;;;;;4915537;29;20076;-70
2022/04/24 05:25:09;;;;;;;8.07;5.50;;;11.80;98.10;;;;;;4931373;29;20028;-72
2022/04/24 05:27:39;;;;;;;6.53;5.85;;;11.80;98.50;;;;;;4917538;29;20032;-70
2022/04/24 05:30:07;;;;;;;10.48;6.55;;;11.90;98.90;;;;;;4916990;29;20413;-72
2022/04/24 05:32:48;;;;;;;6.75;6.05;;;11.80;99.40;;;;;;4916124;29;20431;-71
2022/04/24 05:35:14;;;;;;;6.55;5.95;;;11.80;99.70;;;;;;4915388;29;20505;-71
2022/04/24 05:37:40;;;;;;;12.75;5.72;;;11.80;99.90;;;;;;4931812;29;20032;-72
2022/04/24 05:40:06;;;;;;;7.32;6.22;;;11.70;99.90;;;;;;4917240;29;20047;-72
2022/04/24 05:42:33;;;;;;;7.25;6.53;;;11.70;99.90;;;;;;4916126;29;20076;-71
2022/04/24 05:45:04;;;;;;;7.38;6.68;;;11.70;99.90;;;;;;4915926;29;20048;-72
2022/04/24 05:47:30;;;;;;;7.40;6.10;;;11.70;99.90;;;;;;4915107;29;20517;-73
2022/04/24 05:49:55;;;;;;;8.68;6.97;;;11.60;99.90;;;;;;4909520;29;20059;-71
2022/04/24 05:52:21;;;;;;;8.90;6.95;;;11.60;99.90;;;;;;4915842;29;20419;-72
2022/04/24 05:54:47;;;;;;;10.88;7.53;;;11.60;99.90;;;;;;4915265;29;20172;-72
2022/04/24 05:57:13;;;;;;;8.60;7.47;;;11.70;99.90;;;;;;4902249;29;20036;-71
2022/04/24 05:59:38;;;;;;;7.88;6.88;;;11.80;99.90;;;;;;4891514;29;20371;-71
2022/04/24 06:02:04;;;;;;;7.00;6.28;;;11.80;99.90;;;;;;4897219;29;20036;-71
2022/04/24 06:04:30;;;;;;;12.25;6.82;;;11.70;99.90;;;;;;4910612;29;20402;-74
2022/04/24 06:06:55;;;;;;;7.07;6.38;;;11.80;99.90;;;;;;4914710;29;20040;-72
2022/04/24 06:09:21;;;;;;;8.70;7.80;;;11.90;99.90;;;;;;4914373;29;20028;-70
2022/04/24 06:11:46;;;;;;;8.18;6.90;;;11.90;99.90;;;;;;4916572;29;20573;-71
2022/04/24 06:14:13;;;;;;;8.82;6.47;;;11.80;99.90;;;;;;4914673;29;20037;-71
2022/04/24 06:16:38;;;;;;;8.80;7.90;;;11.80;99.90;;;;;;4916399;29;20051;-71
2022/04/24 06:19:04;;;;;;;10.27;7.13;;;11.80;99.90;;;;;;4915204;29;20032;-71
2022/04/24 06:21:29;;;;;;;9.23;7.35;;;11.70;99.90;;;;;;4915662;29;20463;-71
2022/04/24 06:23:55;;;;;;;10.35;7.90;;;11.70;99.90;;;;;;4916265;29;20470;-71
2022/04/24 06:26:21;;;;;;;9.18;7.22;;;11.90;99.90;;;;;;4915789;29;20039;-72
2022/04/24 06:28:46;;;;;;;8.60;7.70;;;11.80;99.90;;;;;;4914552;29;20028;-72
2022/04/24 06:31:12;;;;;;;8.35;7.53;;;11.70;99.90;;;;;;4914468;29;20039;-70
2022/04/24 06:33:38;;;;;;;9.45;8.48;;;11.80;99.90;;;;;;4916208;29;20089;-72
2022/04/24 06:36:03;;;;;;;9.48;8.02;;;11.70;99.90;;;;;;4914979;29;20032;-71
2022/04/24 06:38:29;;;;;;;9.23;8.13;;;11.70;99.90;;;;;;4915325;29;20409;-71
2022/04/24 06:40:55;;;;;;;9.38;8.38;;;11.70;99.90;;;;;;4916282;29;20048;-71
2022/04/24 06:43:20;;;;;;;11.75;7.80;;;11.80;99.90;;;;;;4915731;29;20068;-72
2022/04/24 06:45:46;;;;;;;12.63;9.02;;;11.80;99.90;;;;;;4916306;29;20447;-71
2022/04/24 06:48:14;;;;;;;9.25;8.35;;;11.90;99.90;;;;;;4915479;29;20036;-68
2022/04/24 06:50:46;;;;;;;9.27;8.25;;;12.00;99.90;;;;;;4914544;29;20127;-72
2022/04/24 06:53:14;;;;;;;10.80;8.52;;;12.10;99.90;;;;;;4914168;29;20055;-70
2022/04/24 06:55:42;;;;;;;8.95;7.75;;;12.30;99.90;;;;;;4914395;29;20450;-71
2022/04/24 06:58:09;;;;;;;8.32;7.53;;;12.40;99.90;;;;;;4914516;29;20028;-72
2022/04/24 07:00:37;;;;;;;12.23;9.00;;;12.40;99.90;;;;;;4905007;29;20376;-73
2022/04/24 07:03:10;;;;;;;10.05;8.50;;;12.50;99.90;;;;;;4914070;29;20036;-71
2022/04/24 07:05:36;;;;;;;8.85;7.95;;;12.50;99.90;;;;;;4913416;29;20032;-74
2022/04/24 07:08:01;;;;;;;10.32;8.32;;;12.50;99.90;;;;;;4913972;29;20055;-74
2022/04/24 07:10:27;;;;;;;9.38;7.95;;;12.50;99.90;;;;;;4913668;29;20056;-72
2022/04/24 07:12:54;;;;;;;9.85;7.70;;;12.70;99.90;;;;;;4915226;29;20060;-69
2022/04/24 07:15:22;;;;;;;10.80;8.05;;;13.30;99.90;;;;;;4913408;29;20127;-71
2022/04/24 07:17:49;;;;;;;9.15;7.85;;;13.50;99.90;;;;;;4915303;29;20020;-67
2022/04/24 07:20:16;;;;;;;9.95;8.07;;;13.30;99.90;;;;;;4907478;29;20424;-66
2022/04/24 07:22:53;;;;;;;10.77;8.57;;;13.30;99.90;;;;;;4911024;29;20131;-67
2022/04/24 07:25:23;;;;;;;13.27;8.30;;;13.40;99.90;;;;;;4904163;29;20525;-66
2022/04/24 07:27:50;;;;;;;9.17;8.23;;;13.50;99.80;;;;;;4886854;29;20427;-67
2022/04/24 07:30:17;;;;;;;15.32;8.70;;;13.70;99.20;;;;;;4895270;29;20764;-66
2022/04/24 07:32:55;;;;;;;11.75;8.85;;;14.10;99.40;;;;;;4894585;29;20040;-66
2022/04/24 07:35:22;;;;;;;9.05;7.78;;;14.40;98.60;;;;;;4894182;29;20493;-66
2022/04/24 07:37:49;;;;;;;11.50;7.88;;;14.80;98.00;;;;;;4896015;29;20021;-67
2022/04/24 07:40:16;;;;;;;10.50;8.80;;;14.60;98.10;;;;;;4898772;29;20043;-69
2022/04/24 07:42:45;;;;;;;9.05;8.00;;;15.00;97.70;;;;;;4914678;29;20032;-68
2022/04/24 07:45:15;;;;;;;9.40;8.40;;;15.20;97.40;;;;;;4897629;29;20117;-68
2022/04/24 07:47:41;;;;;;;10.95;8.52;;;15.50;97.40;;;;;;4897088;29;20040;-68
2022/04/24 07:50:07;;;;;;;16.63;9.23;;;15.70;96.50;;;;;;4907346;29;20032;-68
2022/04/24 07:52:33;;;;;;;9.27;7.95;;;16.00;96.00;;;;;;4890460;29;20048;-69
2022/04/24 07:54:58;;;;;;;8.60;7.70;;;16.00;95.30;;;;;;4889754;29;20450;-68
2022/04/24 07:57:24;;;;;;;9.27;8.20;;;15.90;95.70;;;;;;4890635;29;20036;-67
2022/04/24 07:59:49;;;;;;;8.27;7.35;;;15.80;95.70;;;;;;4896644;29;20032;-68
2022/04/24 08:02:15;;;;;;;9.77;8.07;;;15.90;95.80;;;;;;4901725;29;20082;-67
2022/04/24 08:04:41;;;;;;;10.07;8.55;;;15.70;95.50;;;;;;4908359;29;20048;-67
2022/04/24 08:07:07;;;;;;;13.13;8.68;;;15.40;95.50;;;;;;4908478;29;20495;-68
2022/04/24 08:09:32;;;;;;;9.88;8.73;;;15.30;95.50;;;;;;4909019;29;20024;-68
2022/04/24 08:11:58;;;;;;;10.60;8.23;;;15.30;95.80;;;;;;4915166;29;20453;-69
2022/04/24 08:14:24;;;;;;;9.43;8.52;;;15.30;95.40;;;;;;4914628;29;20032;-70
2022/04/24 08:16:49;;;;;;;10.10;9.10;;;15.30;95.70;;;;;;4913493;29;20187;-68
2022/04/24 08:19:16;;;;;;;11.57;10.00;;;15.20;96.00;;;;;;4914490;29;20035;-68
2022/04/24 08:21:41;;;;;;;9.77;8.80;;;15.20;95.70;;;;;;4915631;29;20123;-68
2022/04/24 08:24:07;;;;;;;12.85;10.00;;;15.20;95.70;;;;;;4917107;29;20088;-69
2022/04/24 08:26:33;;;;;;;11.48;8.52;;;15.10;96.00;;;;;;4910565;29;20033;-67
2022/04/24 08:28:58;;;;;;;11.27;8.48;;;15.10;95.80;;;;;;4892427;29;20028;-71
2022/04/24 08:31:24;;;;;;;13.80;9.27;;;15.20;95.80;;;;;;4894690;29;20124;-70
2022/04/24 08:33:50;;;;;;;14.82;9.15;;;15.10;95.50;;;;;;4900339;29;20894;-73
2022/04/24 08:36:15;;;;;;;11.95;9.55;;;15.10;95.40;;;;;;4893661;29;20037;-70
2022/04/24 08:38:41;;;;;;;10.88;9.77;;;15.00;95.60;;;;;;4892618;29;20063;-69
2022/04/24 08:41:09;;;;;;;15.60;8.98;;;15.10;95.80;;;;;;4908215;29;20037;-69
2022/04/24 08:43:35;;;;;;;9.90;8.90;;;15.20;95.60;;;;;;4894142;29;20025;-69
2022/04/24 08:46:02;;;;;;;10.32;9.23;;;15.20;95.50;;;;;;4887922;29;20104;-69
2022/04/24 08:48:28;;;;;;;12.25;9.75;;;15.40;95.60;;;;;;4903363;29;20442;-70
2022/04/24 08:50:58;;;;;;;13.38;9.05;;;15.50;95.20;;;;;;4898351;29;20078;-70
2022/04/24 08:53:28;;;;;;;11.00;9.55;;;15.80;94.90;;;;;;4905883;29;20435;-68
2022/04/24 08:55:54;;;;;;;11.32;8.40;;;16.00;94.80;;;;;;4901879;29;20042;-70
2022/04/24 08:58:20;;;;;;;9.60;8.70;;;16.20;94.40;;;;;;4874453;29;20518;-69
2022/04/24 09:00:46;;;;;;;11.02;8.13;;;16.40;94.10;;;;;;4874645;29;20036;-70
2022/04/24 09:03:11;;;;;;;11.05;8.85;;;16.50;93.80;;;;;;4872780;29;20237;-71
2022/04/24 09:05:37;;;;;;;11.60;8.32;;;16.50;93.90;;;;;;4874363;29;20338;-70
2022/04/24 09:08:11;;;;;;;12.68;8.57;;;16.50;94.20;;;;;;4880106;29;20044;-70
2022/04/24 09:10:51;;;;;;;10.00;8.45;;;16.70;94.20;;;;;;4889258;29;20068;-70
2022/04/24 09:14:14;;;;;;;9.18;8.23;;;16.70;93.80;;;;;;4876169;29;20037;-71
2022/04/24 09:16:35;;;;;;;9.43;8.32;;;16.90;93.80;;;;;;4882914;29;20036;-70
2022/04/24 09:19:00;;;;;;;11.05;9.18;;;17.00;93.50;;;;;;4894307;29;20116;-70
2022/04/24 09:21:26;;;;;;;8.70;7.88;;;17.00;93.20;;;;;;4891722;29;20037;-70
2022/04/24 09:23:52;;;;;;;10.20;8.68;;;17.10;93.30;;;;;;4891765;29;20485;-71
2022/04/24 09:26:17;;;;;;;9.50;8.32;;;17.00;93.30;;;;;;4894314;29;20031;-71
2022/04/24 09:28:44;;;;;;;10.10;8.70;;;17.10;93.50;;;;;;4897164;29;20529;-69
2022/04/24 09:31:10;;;;;;;9.25;8.07;;;16.80;93.50;;;;;;4896508;29;20037;-70
2022/04/24 09:33:41;;;;;;;10.77;8.18;;;16.90;93.60;;;;;;4894798;29;20040;-69
2022/04/24 09:36:13;;;;;;;11.63;8.20;;;17.00;93.10;;;;;;4912072;29;20420;-70
2022/04/24 09:38:43;;;;;;;8.63;7.68;;;17.00;93.20;;;;;;4897550;29;20052;-69
2022/04/24 09:41:17;;;;;;;15.43;8.95;;;17.00;92.90;;;;;;4892667;29;20033;-71
2022/04/24 09:43:44;;;;;;;9.73;8.00;;;16.70;93.30;;;;;;4892175;29;20037;-70
2022/04/24 09:46:09;;;;;;;13.93;9.27;;;16.90;93.50;;;;;;4893817;29;20116;-70
2022/04/24 09:48:35;;;;;;;10.30;8.85;;;16.80;93.20;;;;;;4882354;29;20169;-69
2022/04/24 09:51:02;;;;;;;8.80;7.63;;;16.70;93.30;;;;;;4888577;29;20033;-68
2022/04/24 09:53:29;;;;;;;11.18;8.38;;;16.80;93.40;;;;;;4881964;29;20033;-68
2022/04/24 09:55:55;;;;;;;10.95;8.25;;;16.80;93.60;;;;;;4885536;29;20434;-69
2022/04/24 09:58:21;;;;;;;8.80;7.90;;;16.80;93.50;;;;;;4885185;29;20067;-68
2022/04/24 10:00:50;;;;;;;10.30;9.30;;;16.90;93.80;;;;;;4879538;29;20037;-69
2022/04/24 10:03:17;;;;;;;9.85;8.80;;;16.80;93.90;;;;;;4889514;29;20092;-70
2022/04/24 10:05:45;;;;;;;10.02;8.10;;;16.90;93.90;;;;;;4906132;29;20459;-71
2022/04/24 10:08:12;;;;;;;10.30;8.82;;;16.80;93.60;;;;;;4892338;29;20029;-68
2022/04/24 10:10:37;;;;;;;9.70;8.75;;;16.70;93.70;;;;;;4885312;29;20065;-70
2022/04/24 10:13:09;;;;;;;8.68;7.82;;;16.50;93.90;;;;;;4890430;29;20553;-70
2022/04/24 10:15:36;;;;;;;;;;;16.60;94.10;;;;;;4887833;29;20052;-70
2022/04/24 10:18:19;;;;;;;10.85;9.25;;;16.50;93.80;;;;;;4877258;29;19915;-70
2022/04/24 10:21:05;;;;;;;23.33;10.35;;;16.30;93.60;;;;;;4892478;29;20035;-71
2022/04/24 10:23:36;;;;;;;8.88;7.97;;;16.30;93.60;;;;;;4890987;29;20036;-71
2022/04/24 10:26:03;;;;;;;9.82;6.63;;;16.20;93.60;;;;;;4896771;29;20035;-73
2022/04/24 10:28:39;;;;;;;10.32;7.20;;;16.20;96.30;;;;;;4895029;29;20442;-73
2022/04/24 10:31:07;;;;;;;17.15;8.05;;;16.40;95.70;;;;;;4895596;29;20381;-72
2022/04/24 10:33:37;;;;;;;8.88;7.65;;;16.50;94.70;;;;;;4896564;29;20115;-72
2022/04/24 10:36:06;;;;;;;7.43;6.72;;;16.60;94.60;;;;;;4895607;29;20063;-71
2022/04/24 10:38:34;;;;;;;8.85;7.10;;;16.60;94.40;;;;;;4910567;29;20036;-73
2022/04/24 10:41:13;;;;;;;12.30;7.68;;;16.80;94.60;;;;;;4895101;29;20036;-74
2022/04/24 10:43:51;;;;;;;7.53;6.70;;;16.80;94.20;;;;;;4892194;29;20490;-75
2022/04/24 10:46:28;;;;;;;9.15;7.88;;;16.90;94.40;;;;;;4895516;29;20032;-72
2022/04/24 10:49:06;;;;;;;6.38;5.80;;;16.80;93.30;;;;;;4887357;29;20045;-73
2022/04/24 10:51:32;;;;;;;8.35;6.93;;;16.70;94.50;;;;;;4876103;29;20043;-72
2022/04/24 10:54:08;;;;;;;8.75;7.80;;;16.60;94.00;;;;;;4885203;29;20050;-73
2022/04/24 10:56:35;;;;;;;7.38;6.57;;;16.60;93.60;;;;;;4894262;29;20036;-72
2022/04/24 10:59:12;;;;;;;9.57;6.35;;;16.60;94.00;;;;;;4888335;29;20043;-73
2022/04/24 11:01:41;;;;;;;10.35;6.95;;;16.90;95.20;;;;;;4895810;29;20191;-70
2022/04/24 11:04:08;;;;;;;8.13;7.32;;;16.90;93.90;;;;;;4895218;29;20051;-72
2022/04/24 11:06:34;;;;;;;8.70;7.80;;;16.90;93.00;;;;;;4896518;29;20041;-70
2022/04/24 11:09:11;;;;;;;8.27;7.47;;;16.90;92.50;;;;;;4887561;29;20177;-72
2022/04/24 11:12:01;;;;;;;8.32;7.40;;;16.50;91.80;;;;;;4883194;29;20555;-73
2022/04/24 11:14:29;;;;;;;7.40;6.68;;;16.50;93.40;;;;;;4899241;29;20041;-71
2022/04/24 11:16:57;;;;;;;8.13;7.13;;;16.30;92.20;;;;;;4885638;29;20165;-71
2022/04/24 11:19:25;;;;;;;8.20;7.38;;;16.20;92.20;;;;;;4872229;29;20343;-72
2022/04/24 11:21:59;;;;;;;8.35;6.05;;;16.10;92.30;;;;;;4878258;29;20025;-69
2022/04/24 11:24:27;;;;;;;15.63;6.05;;;16.30;94.00;;;;;;4876732;29;20427;-70
2022/04/24 11:26:54;;;;;;;10.18;7.20;;;16.70;95.00;;;;;;4877387;29;20029;-70
2022/04/24 11:29:21;;;;;;;10.23;8.02;;;16.80;92.80;;;;;;4885954;29;20490;-71
2022/04/24 11:31:52;;;;;;;9.02;8.13;;;16.80;91.20;;;;;;4885938;29;20044;-70
2022/04/24 11:34:19;;;;;;;12.30;8.05;;;16.30;91.40;;;;;;4905141;29;20036;-69
2022/04/24 11:36:46;;;;;;;8.68;7.78;;;16.20;91.60;;;;;;4895067;29;20033;-70
2022/04/24 11:39:13;;;;;;;9.07;6.93;;;16.10;91.70;;;;;;4897265;29;20055;-69
2022/04/24 11:41:39;;;;;;;12.45;7.63;;;16.00;91.80;;;;;;4892128;29;20041;-75
2022/04/24 11:50:13;;;;;;;8.15;6.82;;;16.00;91.80;;;;;;4877526;29;20116;-69
2022/04/24 11:52:22;;;;;;;9.60;8.60;;;16.20;91.70;;;;;;4878210;29;20154;-71
2022/04/24 11:54:49;;;;;;;11.07;7.28;;;16.20;92.10;;;;;;4877520;29;20069;-70
2022/04/24 11:57:15;;;;;;;10.90;8.77;;;16.30;91.50;;;;;;4876278;29;20494;-71
2022/04/24 11:59:40;;;;;;;10.23;8.02;;;16.40;91.30;;;;;;4877503;29;20108;-71
2022/04/24 12:02:14;;;;;;;8.82;7.88;;;16.40;91.20;;;;;;4892871;29;20057;-71
2022/04/24 12:04:40;;;;;;;10.85;8.23;;;16.50;91.30;;;;;;4893634;29;20105;-69
2022/04/24 12:07:09;;;;;;;11.52;8.38;;;16.70;91.10;;;;;;4889301;29;20128;-71
2022/04/24 12:09:36;;;;;;;12.00;9.18;;;16.70;90.90;;;;;;4892829;29;20032;-73
2022/04/24 12:12:07;;;;;;;10.32;9.27;;;16.60;90.90;;;;;;4888076;29;20110;-70
2022/04/24 12:14:34;;;;;;;9.15;8.25;;;16.70;90.80;;;;;;4895748;29;20127;-70
2022/04/24 12:17:10;;;;;;;10.45;8.13;;;16.80;90.80;;;;;;4910847;29;20028;-70
2022/04/24 12:19:40;;;;;;;9.43;8.50;;;17.10;91.00;;;;;;4893083;29;20031;-70
2022/04/24 12:22:08;;;;;;;11.07;8.75;;;17.20;90.50;;;;;;4894999;29;20036;-68
2022/04/24 12:24:39;;;;;;;13.45;9.63;;;17.50;90.60;;;;;;4911285;29;20039;-67
2022/04/24 12:27:09;;;;;;;9.80;8.20;;;17.70;90.60;;;;;;4911655;29;20103;-70
2022/04/24 12:29:48;;;;;;;10.02;8.77;;;18.00;92.40;;;;;;4894160;29;20139;-71
2022/04/24 12:32:14;;;;;;;10.45;8.60;;;18.20;92.80;;;;;;4911802;29;20028;-71
2022/04/24 12:34:44;;;;;;;9.38;8.43;;;18.30;91.70;;;;;;4893708;29;20039;-71
2022/04/24 12:37:12;;;;;;;12.45;8.23;;;18.10;92.60;;;;;;4893001;29;20138;-69
2022/04/24 12:39:38;;;;;;;97.47;14.05;;;18.10;92.20;;;;;;4906230;29;20098;-71
2022/04/24 12:42:25;;;;;;;43.70;11.23;;;18.20;92.80;;;;;;4912222;29;20110;-70
2022/04/24 12:44:51;;;;;;;10.88;9.07;;;17.80;91.60;;;;;;4891533;29;20167;-71
2022/04/24 12:47:18;;;;;;;13.10;11.43;;;17.50;90.90;;;;;;4909963;29;20040;-68
2022/04/24 12:49:44;;;;;;;15.93;10.50;;;17.30;91.20;;;;;;4909734;29;20028;-69
2022/04/24 12:52:10;;;;;;;13.30;9.20;;;17.20;91.50;;;;;;4894344;29;20500;-69
2022/04/24 12:54:36;;;;;;;12.77;9.68;;;17.30;91.60;;;;;;4897387;29;20028;-69
2022/04/24 12:57:07;;;;;;;9.85;8.75;;;17.20;91.60;;;;;;4891843;29;20158;-68